Airfield :







YOU CAN JOIN US ON...

 
LOGIN :

Register | Disclaimer

   EN    FR    IT 

 









Legend :    VFR   Marginal VFR   IFR   Intensive IFR   Very Intensive IFR
Visi :
Ceiling :
>= 8 km
>= 3000ft
5 to 8 km
1000 to 3000 ft
1500m to 5 km
500 to 1000 ft
800 to 1500m
200 to 500 ft
< 800m
< 200 ft
Symbols :   Thunderstorms  Fog  Heavy snow  Heavy precipitations  Wind > 20 kt






- Airport Elevation : 20 ft
- IATA code : BOS


KBOS - General Edward Lawrence Logan International

CURRENT METAR :
  • 060454Z 24011KT 10SM FEW050 FEW150 OVC250 08/04 A2995 RMK AO2 SLP142 T00780044 401220039

EXPIRED METARs :
  • 060354Z 23007KT 10SM FEW075 FEW150 OVC250 08/04 A2996 RMK AO2 SLP146 T00780039
  • 060254Z 22010KT 10SM FEW150 OVC250 07/04 A2997 RMK AO2 SLP148 T00720039 50001

TAF KBOS
Valid from the 06 at 06:00 until the 07 at 12:00 UTC


060532Z 0606/0712 25008KT P6SM BKN150
FM060800 31008KT P6SM FEW250
FM061500 31010G18KT P6SM SKC
FM062200 29009KT P6SM SCT250
FM070600 27005KT P6SM BKN120



MET'MAP, your aeronautical weather chart ! - Copyright ORBIFLY December 2007 - Disclaimer

ORBIFLY MET'MAP TEAM :

Programming & Development : Alexandra Zaïnal
Concept & original design : Baudouin d'Aumeries
Assistance for programming : Marc-Olivier Méhu
Technical & hardware support : Manuel Goepfert

Contact : metmap@orbifly.com




SOURCES & CREDITS :

   NOAA